sensor_id;sensor_type;location;lat;lon;timestamp;P1;durP1;ratioP1;P2;durP2;ratioP2
14611;SDS011;7392;52.078;11.650;2023-09-08T00:00:43;1.80;;;1.70;;
14611;SDS011;7392;52.078;11.650;2023-09-08T00:03:11;2.20;;;2.00;;
14611;SDS011;7392;52.078;11.650;2023-09-08T00:05:39;2.20;;;2.00;;
14611;SDS011;7392;52.078;11.650;2023-09-08T00:12:18;2.10;;;1.80;;
14611;SDS011;7392;52.078;11.650;2023-09-08T00:14:47;2.00;;;1.80;;
14611;SDS011;7392;52.078;11.650;2023-09-08T00:17:15;1.80;;;1.70;;
14611;SDS011;7392;52.078;11.650;2023-09-08T00:19:43;1.90;;;1.80;;
14611;SDS011;7392;52.078;11.650;2023-09-08T00:22:11;1.80;;;1.70;;
14611;SDS011;7392;52.078;11.650;2023-09-08T00:24:38;2.17;;;1.97;;
14611;SDS011;7392;52.078;11.650;2023-09-08T00:27:06;2.00;;;1.90;;
14611;SDS011;7392;52.078;11.650;2023-09-08T00:29:35;2.20;;;2.00;;
14611;SDS011;7392;52.078;11.650;2023-09-08T00:32:05;2.20;;;1.90;;
14611;SDS011;7392;52.078;11.650;2023-09-08T00:34:33;2.40;;;2.20;;
14611;SDS011;7392;52.078;11.650;2023-09-08T00:37:01;2.27;;;2.07;;
14611;SDS011;7392;52.078;11.650;2023-09-08T00:39:34;2.40;;;2.20;;
14611;SDS011;7392;52.078;11.650;2023-09-08T00:42:02;2.27;;;2.07;;
14611;SDS011;7392;52.078;11.650;2023-09-08T00:44:30;2.20;;;2.00;;
14611;SDS011;7392;52.078;11.650;2023-09-08T00:46:58;2.30;;;2.10;;
14611;SDS011;7392;52.078;11.650;2023-09-08T00:49:27;2.00;;;1.83;;
14611;SDS011;7392;52.078;11.650;2023-09-08T00:51:55;2.03;;;1.83;;
14611;SDS011;7392;52.078;11.650;2023-09-08T00:54:23;2.40;;;2.20;;
14611;SDS011;7392;52.078;11.650;2023-09-08T00:56:51;2.13;;;1.93;;
14611;SDS011;7392;52.078;11.650;2023-09-08T00:59:23;2.30;;;2.10;;
14611;SDS011;7392;52.078;11.650;2023-09-08T01:01:52;2.17;;;1.97;;
14611;SDS011;7392;52.078;11.650;2023-09-08T01:04:20;2.07;;;1.87;;
14611;SDS011;7392;52.078;11.650;2023-09-08T01:06:50;2.20;;;2.00;;
14611;SDS011;7392;52.078;11.650;2023-09-08T01:09:19;2.10;;;1.90;;
14611;SDS011;7392;52.078;11.650;2023-09-08T01:11:47;2.13;;;1.93;;
14611;SDS011;7392;52.078;11.650;2023-09-08T01:14:17;2.23;;;2.03;;
14611;SDS011;7392;52.078;11.650;2023-09-08T01:16:45;2.13;;;1.93;;
14611;SDS011;7392;52.078;11.650;2023-09-08T01:19:13;2.70;;;2.47;;
14611;SDS011;7392;52.078;11.650;2023-09-08T01:21:58;2.40;;;2.20;;
14611;SDS011;7392;52.078;11.650;2023-09-08T01:24:58;2.63;;;2.43;;
14611;SDS011;7392;52.078;11.650;2023-09-08T01:27:32;2.40;;;2.20;;
14611;SDS011;7392;52.078;11.650;2023-09-08T01:30:02;2.43;;;2.23;;
14611;SDS011;7392;52.078;11.650;2023-09-08T01:32:33;2.20;;;2.00;;
14611;SDS011;7392;52.078;11.650;2023-09-08T01:35:02;2.30;;;2.10;;
14611;SDS011;7392;52.078;11.650;2023-09-08T01:37:31;2.10;;;1.90;;
14611;SDS011;7392;52.078;11.650;2023-09-08T01:40:00;2.73;;;2.53;;
14611;SDS011;7392;52.078;11.650;2023-09-08T01:42:28;2.20;;;2.00;;
14611;SDS011;7392;52.078;11.650;2023-09-08T01:44:55;2.73;;;2.37;;
14611;SDS011;7392;52.078;11.650;2023-09-08T01:47:23;2.27;;;2.07;;
14611;SDS011;7392;52.078;11.650;2023-09-08T01:49:51;1.93;;;1.80;;
14611;SDS011;7392;52.078;11.650;2023-09-08T01:52:19;3.03;;;2.17;;
14611;SDS011;7392;52.078;11.650;2023-09-08T01:54:47;2.30;;;2.10;;
14611;SDS011;7392;52.078;11.650;2023-09-08T01:57:16;2.07;;;1.90;;
14611;SDS011;7392;52.078;11.650;2023-09-08T01:59:44;3.23;;;2.40;;
14611;SDS011;7392;52.078;11.650;2023-09-08T02:02:13;2.63;;;2.43;;
14611;SDS011;7392;52.078;11.650;2023-09-08T02:04:40;2.53;;;2.33;;
14611;SDS011;7392;52.078;11.650;2023-09-08T02:07:08;2.60;;;2.40;;
14611;SDS011;7392;52.078;11.650;2023-09-08T02:09:36;2.37;;;2.17;;
14611;SDS011;7392;52.078;11.650;2023-09-08T02:12:05;2.43;;;2.23;;
14611;SDS011;7392;52.078;11.650;2023-09-08T02:14:34;2.40;;;2.20;;
14611;SDS011;7392;52.078;11.650;2023-09-08T02:17:04;2.23;;;2.03;;
14611;SDS011;7392;52.078;11.650;2023-09-08T02:19:32;2.57;;;2.37;;
14611;SDS011;7392;52.078;11.650;2023-09-08T02:22:00;2.77;;;2.57;;
14611;SDS011;7392;52.078;11.650;2023-09-08T02:24:28;2.83;;;2.50;;
14611;SDS011;7392;52.078;11.650;2023-09-08T02:26:57;2.90;;;2.60;;
14611;SDS011;7392;52.078;11.650;2023-09-08T02:29:24;2.80;;;2.60;;
14611;SDS011;7392;52.078;11.650;2023-09-08T02:31:55;2.67;;;2.47;;
14611;SDS011;7392;52.078;11.650;2023-09-08T02:34:22;2.90;;;2.70;;
14611;SDS011;7392;52.078;11.650;2023-09-08T02:36:50;2.50;;;2.30;;
14611;SDS011;7392;52.078;11.650;2023-09-08T02:39:22;2.80;;;2.60;;
14611;SDS011;7392;52.078;11.650;2023-09-08T02:41:53;2.60;;;2.40;;
14611;SDS011;7392;52.078;11.650;2023-09-08T02:44:21;2.47;;;2.27;;
14611;SDS011;7392;52.078;11.650;2023-09-08T02:46:49;2.63;;;2.43;;
14611;SDS011;7392;52.078;11.650;2023-09-08T02:49:18;2.73;;;2.53;;
14611;SDS011;7392;52.078;11.650;2023-09-08T02:51:46;2.90;;;2.33;;
14611;SDS011;7392;52.078;11.650;2023-09-08T02:54:13;2.83;;;2.53;;
14611;SDS011;7392;52.078;11.650;2023-09-08T02:56:41;2.70;;;2.50;;
14611;SDS011;7392;52.078;11.650;2023-09-08T02:59:09;2.57;;;2.37;;
14611;SDS011;7392;52.078;11.650;2023-09-08T03:01:37;2.73;;;2.43;;
14611;SDS011;7392;52.078;11.650;2023-09-08T03:04:05;3.13;;;2.70;;
14611;SDS011;7392;52.078;11.650;2023-09-08T03:06:34;2.60;;;2.40;;
14611;SDS011;7392;52.078;11.650;2023-09-08T03:09:02;3.10;;;2.80;;
14611;SDS011;7392;52.078;11.650;2023-09-08T03:11:30;2.77;;;2.57;;
14611;SDS011;7392;52.078;11.650;2023-09-08T03:13:57;3.30;;;3.00;;
14611;SDS011;7392;52.078;11.650;2023-09-08T03:16:25;3.13;;;2.87;;
14611;SDS011;7392;52.078;11.650;2023-09-08T03:18:53;3.23;;;2.93;;
14611;SDS011;7392;52.078;11.650;2023-09-08T03:21:21;2.90;;;2.70;;
14611;SDS011;7392;52.078;11.650;2023-09-08T03:23:50;2.80;;;2.60;;
14611;SDS011;7392;52.078;11.650;2023-09-08T03:26:18;2.90;;;2.70;;
14611;SDS011;7392;52.078;11.650;2023-09-08T03:28:46;2.47;;;2.27;;
14611;SDS011;7392;52.078;11.650;2023-09-08T03:31:13;2.67;;;2.47;;
14611;SDS011;7392;52.078;11.650;2023-09-08T03:33:41;2.67;;;2.47;;
14611;SDS011;7392;52.078;11.650;2023-09-08T03:36:10;2.57;;;2.30;;
14611;SDS011;7392;52.078;11.650;2023-09-08T03:38:38;2.60;;;2.40;;
14611;SDS011;7392;52.078;11.650;2023-09-08T03:41:08;2.70;;;2.50;;
14611;SDS011;7392;52.078;11.650;2023-09-08T03:43:37;2.67;;;2.47;;
14611;SDS011;7392;52.078;11.650;2023-09-08T03:46:05;2.50;;;2.30;;
14611;SDS011;7392;52.078;11.650;2023-09-08T03:48:33;2.70;;;2.50;;
14611;SDS011;7392;52.078;11.650;2023-09-08T03:51:00;2.40;;;2.20;;
14611;SDS011;7392;52.078;11.650;2023-09-08T03:53:28;2.60;;;2.40;;
14611;SDS011;7392;52.078;11.650;2023-09-08T03:55:57;2.57;;;2.37;;
14611;SDS011;7392;52.078;11.650;2023-09-08T03:58:26;2.47;;;2.27;;
14611;SDS011;7392;52.078;11.650;2023-09-08T04:00:55;2.37;;;2.17;;
14611;SDS011;7392;52.078;11.650;2023-09-08T04:03:23;2.63;;;2.43;;
14611;SDS011;7392;52.078;11.650;2023-09-08T04:05:51;2.77;;;2.57;;
14611;SDS011;7392;52.078;11.650;2023-09-08T04:08:19;2.50;;;2.30;;
14611;SDS011;7392;52.078;11.650;2023-09-08T04:10:46;2.90;;;2.60;;
14611;SDS011;7392;52.078;11.650;2023-09-08T04:13:14;2.10;;;1.90;;
14611;SDS011;7392;52.078;11.650;2023-09-08T04:15:43;2.77;;;2.50;;
14611;SDS011;7392;52.078;11.650;2023-09-08T04:18:11;2.30;;;2.00;;
14611;SDS011;7392;52.078;11.650;2023-09-08T04:20:39;2.40;;;2.20;;
14611;SDS011;7392;52.078;11.650;2023-09-08T04:23:07;2.90;;;2.70;;
14611;SDS011;7392;52.078;11.650;2023-09-08T04:25:34;3.10;;;2.80;;
14611;SDS011;7392;52.078;11.650;2023-09-08T04:28:03;2.67;;;2.47;;
14611;SDS011;7392;52.078;11.650;2023-09-08T04:30:32;2.60;;;2.30;;
14611;SDS011;7392;52.078;11.650;2023-09-08T04:33:01;2.47;;;2.27;;
14611;SDS011;7392;52.078;11.650;2023-09-08T04:35:29;2.83;;;2.63;;
14611;SDS011;7392;52.078;11.650;2023-09-08T04:37:57;2.73;;;2.53;;
14611;SDS011;7392;52.078;11.650;2023-09-08T04:40:26;3.10;;;2.73;;
14611;SDS011;7392;52.078;11.650;2023-09-08T04:42:55;2.43;;;2.13;;
14611;SDS011;7392;52.078;11.650;2023-09-08T04:45:22;2.77;;;2.57;;
14611;SDS011;7392;52.078;11.650;2023-09-08T04:47:50;3.00;;;2.70;;
14611;SDS011;7392;52.078;11.650;2023-09-08T04:50:21;2.53;;;2.33;;
14611;SDS011;7392;52.078;11.650;2023-09-08T04:52:49;2.70;;;2.50;;
14611;SDS011;7392;52.078;11.650;2023-09-08T04:55:17;2.57;;;2.37;;
14611;SDS011;7392;52.078;11.650;2023-09-08T04:57:46;3.00;;;2.70;;
14611;SDS011;7392;52.078;11.650;2023-09-08T05:00:14;2.60;;;2.40;;
14611;SDS011;7392;52.078;11.650;2023-09-08T05:02:42;3.00;;;2.73;;
14611;SDS011;7392;52.078;11.650;2023-09-08T05:05:11;2.53;;;2.33;;
14611;SDS011;7392;52.078;11.650;2023-09-08T05:07:41;2.30;;;2.10;;
14611;SDS011;7392;52.078;11.650;2023-09-08T05:10:09;3.30;;;3.00;;
14611;SDS011;7392;52.078;11.650;2023-09-08T05:12:38;3.30;;;3.00;;
14611;SDS011;7392;52.078;11.650;2023-09-08T05:15:06;3.03;;;2.77;;
14611;SDS011;7392;52.078;11.650;2023-09-08T05:17:44;3.20;;;2.90;;
14611;SDS011;7392;52.078;11.650;2023-09-08T05:20:12;3.27;;;2.97;;
14611;SDS011;7392;52.078;11.650;2023-09-08T05:22:41;3.03;;;2.77;;
14611;SDS011;7392;52.078;11.650;2023-09-08T05:25:09;3.40;;;3.10;;
14611;SDS011;7392;52.078;11.650;2023-09-08T05:27:38;2.50;;;2.30;;
14611;SDS011;7392;52.078;11.650;2023-09-08T05:30:06;2.57;;;2.37;;
14611;SDS011;7392;52.078;11.650;2023-09-08T05:32:36;2.57;;;2.37;;
14611;SDS011;7392;52.078;11.650;2023-09-08T05:35:04;2.80;;;2.60;;
14611;SDS011;7392;52.078;11.650;2023-09-08T05:37:32;2.50;;;2.30;;
14611;SDS011;7392;52.078;11.650;2023-09-08T05:40:02;2.57;;;2.37;;
14611;SDS011;7392;52.078;11.650;2023-09-08T05:42:31;2.77;;;2.30;;
14611;SDS011;7392;52.078;11.650;2023-09-08T05:44:59;2.07;;;1.93;;
14611;SDS011;7392;52.078;11.650;2023-09-08T05:47:27;2.53;;;2.33;;
14611;SDS011;7392;52.078;11.650;2023-09-08T05:49:55;2.60;;;2.40;;
14611;SDS011;7392;52.078;11.650;2023-09-08T05:52:23;4.10;;;3.00;;
14611;SDS011;7392;52.078;11.650;2023-09-08T05:54:52;4.13;;;3.70;;
14611;SDS011;7392;52.078;11.650;2023-09-08T05:57:22;3.40;;;3.10;;
14611;SDS011;7392;52.078;11.650;2023-09-08T05:59:49;3.67;;;3.20;;
14611;SDS011;7392;52.078;11.650;2023-09-08T06:02:17;3.67;;;3.37;;
14611;SDS011;7392;52.078;11.650;2023-09-08T06:04:45;3.40;;;3.10;;
14611;SDS011;7392;52.078;11.650;2023-09-08T06:07:13;4.13;;;3.40;;
14611;SDS011;7392;52.078;11.650;2023-09-08T06:09:40;3.63;;;3.30;;
14611;SDS011;7392;52.078;11.650;2023-09-08T06:12:08;4.37;;;3.80;;
14611;SDS011;7392;52.078;11.650;2023-09-08T06:14:37;4.00;;;3.60;;
14611;SDS011;7392;52.078;11.650;2023-09-08T06:17:09;3.93;;;3.57;;
14611;SDS011;7392;52.078;11.650;2023-09-08T06:19:37;4.10;;;3.70;;
14611;SDS011;7392;52.078;11.650;2023-09-08T06:22:05;4.03;;;3.63;;
14611;SDS011;7392;52.078;11.650;2023-09-08T06:24:33;5.43;;;4.30;;
14611;SDS011;7392;52.078;11.650;2023-09-08T06:27:01;4.40;;;4.00;;
14611;SDS011;7392;52.078;11.650;2023-09-08T06:29:29;4.70;;;4.30;;
14611;SDS011;7392;52.078;11.650;2023-09-08T06:31:58;7.60;;;5.10;;
14611;SDS011;7392;52.078;11.650;2023-09-08T06:34:26;5.53;;;5.03;;
14611;SDS011;7392;52.078;11.650;2023-09-08T06:36:54;4.97;;;4.53;;
14611;SDS011;7392;52.078;11.650;2023-09-08T06:39:21;5.20;;;4.80;;
14611;SDS011;7392;52.078;11.650;2023-09-08T06:41:49;5.03;;;4.53;;
14611;SDS011;7392;52.078;11.650;2023-09-08T06:44:19;5.57;;;5.07;;
14611;SDS011;7392;52.078;11.650;2023-09-08T06:46:46;5.57;;;5.07;;
14611;SDS011;7392;52.078;11.650;2023-09-08T06:49:16;6.23;;;5.40;;
14611;SDS011;7392;52.078;11.650;2023-09-08T06:51:45;5.97;;;5.00;;
14611;SDS011;7392;52.078;11.650;2023-09-08T06:54:14;5.30;;;4.80;;
14611;SDS011;7392;52.078;11.650;2023-09-08T06:56:43;5.80;;;5.20;;
14611;SDS011;7392;52.078;11.650;2023-09-08T06:59:11;6.87;;;5.70;;
14611;SDS011;7392;52.078;11.650;2023-09-08T07:01:38;6.40;;;5.80;;
14611;SDS011;7392;52.078;11.650;2023-09-08T07:04:08;6.17;;;5.57;;
14611;SDS011;7392;52.078;11.650;2023-09-08T07:06:38;7.60;;;6.60;;
14611;SDS011;7392;52.078;11.650;2023-09-08T07:09:08;6.80;;;6.10;;
14611;SDS011;7392;52.078;11.650;2023-09-08T07:11:36;6.70;;;6.00;;
14611;SDS011;7392;52.078;11.650;2023-09-08T07:14:04;6.90;;;6.20;;
14611;SDS011;7392;52.078;11.650;2023-09-08T07:16:32;6.83;;;6.10;;
14611;SDS011;7392;52.078;11.650;2023-09-08T07:19:00;6.07;;;5.50;;
14611;SDS011;7392;52.078;11.650;2023-09-08T07:21:28;5.47;;;4.97;;
14611;SDS011;7392;52.078;11.650;2023-09-08T07:23:58;6.07;;;5.47;;
14611;SDS011;7392;52.078;11.650;2023-09-08T07:26:27;4.93;;;4.53;;
14611;SDS011;7392;52.078;11.650;2023-09-08T07:28:55;5.30;;;4.80;;
14611;SDS011;7392;52.078;11.650;2023-09-08T07:31:23;5.63;;;5.13;;
14611;SDS011;7392;52.078;11.650;2023-09-08T07:33:51;6.10;;;5.50;;
14611;SDS011;7392;52.078;11.650;2023-09-08T07:36:19;6.67;;;5.70;;
14611;SDS011;7392;52.078;11.650;2023-09-08T07:38:47;7.63;;;6.40;;
14611;SDS011;7392;52.078;11.650;2023-09-08T07:41:16;6.83;;;6.20;;
14611;SDS011;7392;52.078;11.650;2023-09-08T07:43:44;7.33;;;6.00;;
14611;SDS011;7392;52.078;11.650;2023-09-08T07:46:16;5.53;;;5.03;;
14611;SDS011;7392;52.078;11.650;2023-09-08T07:48:44;6.77;;;5.80;;
14611;SDS011;7392;52.078;11.650;2023-09-08T07:51:11;6.13;;;5.53;;
14611;SDS011;7392;52.078;11.650;2023-09-08T07:53:39;10.30;;;6.17;;
14611;SDS011;7392;52.078;11.650;2023-09-08T07:56:07;8.70;;;7.43;;
14611;SDS011;7392;52.078;11.650;2023-09-08T07:58:36;7.33;;;6.40;;
14611;SDS011;7392;52.078;11.650;2023-09-08T08:01:04;7.30;;;6.40;;
14611;SDS011;7392;52.078;11.650;2023-09-08T08:03:32;7.77;;;6.40;;
14611;SDS011;7392;52.078;11.650;2023-09-08T08:06:01;6.47;;;5.87;;
14611;SDS011;7392;52.078;11.650;2023-09-08T08:08:29;8.43;;;6.00;;
14611;SDS011;7392;52.078;11.650;2023-09-08T08:10:57;9.17;;;6.37;;
14611;SDS011;7392;52.078;11.650;2023-09-08T08:13:26;6.10;;;5.50;;
14611;SDS011;7392;52.078;11.650;2023-09-08T08:15:55;6.43;;;5.83;;
14611;SDS011;7392;52.078;11.650;2023-09-08T08:18:22;6.70;;;6.07;;
14611;SDS011;7392;52.078;11.650;2023-09-08T08:20:50;6.70;;;5.33;;
14611;SDS011;7392;52.078;11.650;2023-09-08T08:23:18;6.90;;;5.53;;
14611;SDS011;7392;52.078;11.650;2023-09-08T08:25:46;6.43;;;5.73;;
14611;SDS011;7392;52.078;11.650;2023-09-08T08:28:14;6.20;;;5.60;;
14611;SDS011;7392;52.078;11.650;2023-09-08T08:30:42;6.70;;;6.10;;
14611;SDS011;7392;52.078;11.650;2023-09-08T08:33:14;7.03;;;6.33;;
14611;SDS011;7392;52.078;11.650;2023-09-08T08:35:41;8.20;;;5.73;;
14611;SDS011;7392;52.078;11.650;2023-09-08T08:38:16;6.87;;;6.17;;
14611;SDS011;7392;52.078;11.650;2023-09-08T08:40:43;5.57;;;4.93;;
14611;SDS011;7392;52.078;11.650;2023-09-08T08:43:11;5.77;;;4.80;;
14611;SDS011;7392;52.078;11.650;2023-09-08T08:45:41;6.47;;;5.53;;
14611;SDS011;7392;52.078;11.650;2023-09-08T08:48:09;8.03;;;5.40;;
14611;SDS011;7392;52.078;11.650;2023-09-08T08:50:41;6.00;;;5.30;;
14611;SDS011;7392;52.078;11.650;2023-09-08T08:53:10;5.70;;;4.83;;
14611;SDS011;7392;52.078;11.650;2023-09-08T08:55:39;5.60;;;4.93;;
14611;SDS011;7392;52.078;11.650;2023-09-08T08:58:08;7.50;;;4.90;;
14611;SDS011;7392;52.078;11.650;2023-09-08T09:00:36;5.03;;;4.53;;
14611;SDS011;7392;52.078;11.650;2023-09-08T09:03:05;4.80;;;4.30;;
14611;SDS011;7392;52.078;11.650;2023-09-08T09:05:42;5.57;;;4.27;;
14611;SDS011;7392;52.078;11.650;2023-09-08T09:08:14;5.57;;;4.37;;
14611;SDS011;7392;52.078;11.650;2023-09-08T09:10:43;4.43;;;4.03;;
14611;SDS011;7392;52.078;11.650;2023-09-08T09:13:11;5.30;;;4.80;;
14611;SDS011;7392;52.078;11.650;2023-09-08T09:15:39;4.60;;;4.20;;
14611;SDS011;7392;52.078;11.650;2023-09-08T09:18:07;6.65;;;4.72;;
14611;SDS011;7392;52.078;11.650;2023-09-08T09:20:35;5.28;;;4.75;;
14611;SDS011;7392;52.078;11.650;2023-09-08T09:23:05;5.15;;;4.28;;
14611;SDS011;7392;52.078;11.650;2023-09-08T09:25:32;5.00;;;4.50;;
14611;SDS011;7392;52.078;11.650;2023-09-08T09:28:03;6.82;;;4.40;;
14611;SDS011;7392;52.078;11.650;2023-09-08T09:30:48;6.18;;;4.45;;
14611;SDS011;7392;52.078;11.650;2023-09-08T09:33:17;5.00;;;4.50;;
14611;SDS011;7392;52.078;11.650;2023-09-08T09:35:46;4.78;;;4.38;;
14611;SDS011;7392;52.078;11.650;2023-09-08T09:38:17;5.50;;;4.95;;
14611;SDS011;7392;52.078;11.650;2023-09-08T09:40:47;4.88;;;4.05;;
14611;SDS011;7392;52.078;11.650;2023-09-08T09:43:16;5.72;;;4.00;;
14611;SDS011;7392;52.078;11.650;2023-09-08T09:45:44;5.10;;;4.63;;
14611;SDS011;7392;52.078;11.650;2023-09-08T09:48:12;5.45;;;4.63;;
14611;SDS011;7392;52.078;11.650;2023-09-08T09:50:41;5.70;;;5.20;;
14611;SDS011;7392;52.078;11.650;2023-09-08T09:53:10;4.85;;;4.32;;
14611;SDS011;7392;52.078;11.650;2023-09-08T09:55:41;6.50;;;4.63;;
14611;SDS011;7392;52.078;11.650;2023-09-08T09:58:11;4.80;;;4.40;;
14611;SDS011;7392;52.078;11.650;2023-09-08T10:00:40;5.10;;;4.60;;
14611;SDS011;7392;52.078;11.650;2023-09-08T10:03:12;5.22;;;4.68;;
14611;SDS011;7392;52.078;11.650;2023-09-08T10:05:41;5.25;;;4.72;;
14611;SDS011;7392;52.078;11.650;2023-09-08T10:08:08;5.50;;;4.95;;
14611;SDS011;7392;52.078;11.650;2023-09-08T10:10:37;5.30;;;4.80;;
14611;SDS011;7392;52.078;11.650;2023-09-08T10:13:09;5.95;;;4.47;;
14611;SDS011;7392;52.078;11.650;2023-09-08T10:15:38;5.40;;;4.57;;
14611;SDS011;7392;52.078;11.650;2023-09-08T10:18:08;6.22;;;4.72;;
14611;SDS011;7392;52.078;11.650;2023-09-08T10:20:42;4.93;;;4.45;;
14611;SDS011;7392;52.078;11.650;2023-09-08T10:23:12;4.32;;;3.92;;
14611;SDS011;7392;52.078;11.650;2023-09-08T10:25:43;4.47;;;4.07;;
14611;SDS011;7392;52.078;11.650;2023-09-08T10:28:20;4.57;;;4.18;;
14611;SDS011;7392;52.078;11.650;2023-09-08T10:30:49;4.65;;;4.25;;
14611;SDS011;7392;52.078;11.650;2023-09-08T10:33:18;5.20;;;4.35;;
14611;SDS011;7392;52.078;11.650;2023-09-08T10:35:47;6.72;;;3.60;;
14611;SDS011;7392;52.078;11.650;2023-09-08T10:38:21;4.40;;;3.63;;
14611;SDS011;7392;52.078;11.650;2023-09-08T10:40:51;7.40;;;4.20;;
14611;SDS011;7392;52.078;11.650;2023-09-08T10:43:21;4.20;;;3.80;;
14611;SDS011;7392;52.078;11.650;2023-09-08T10:45:51;4.38;;;3.85;;
14611;SDS011;7392;52.078;11.650;2023-09-08T10:48:19;5.00;;;4.03;;
14611;SDS011;7392;52.078;11.650;2023-09-08T10:50:46;3.85;;;3.55;;
14611;SDS011;7392;52.078;11.650;2023-09-08T10:53:15;6.90;;;4.18;;
14611;SDS011;7392;52.078;11.650;2023-09-08T10:55:44;5.00;;;4.35;;
14611;SDS011;7392;52.078;11.650;2023-09-08T10:58:39;4.60;;;4.07;;
14611;SDS011;7392;52.078;11.650;2023-09-08T11:01:12;4.32;;;4.00;;
14611;SDS011;7392;52.078;11.650;2023-09-08T11:03:44;3.78;;;3.47;;
14611;SDS011;7392;52.078;11.650;2023-09-08T11:06:16;4.72;;;4.32;;
14611;SDS011;7392;52.078;11.650;2023-09-08T11:08:45;4.60;;;4.20;;
14611;SDS011;7392;52.078;11.650;2023-09-08T11:11:15;4.57;;;4.00;;
14611;SDS011;7392;52.078;11.650;2023-09-08T11:13:46;4.38;;;3.95;;
14611;SDS011;7392;52.078;11.650;2023-09-08T11:16:14;5.63;;;4.38;;
14611;SDS011;7392;52.078;11.650;2023-09-08T11:18:42;4.43;;;4.03;;
14611;SDS011;7392;52.078;11.650;2023-09-08T11:21:10;4.40;;;4.00;;
14611;SDS011;7392;52.078;11.650;2023-09-08T11:23:38;7.20;;;4.15;;
14611;SDS011;7392;52.078;11.650;2023-09-08T11:26:06;5.40;;;3.92;;
14611;SDS011;7392;52.078;11.650;2023-09-08T11:28:35;5.20;;;4.15;;
14611;SDS011;7392;52.078;11.650;2023-09-08T11:31:05;4.93;;;4.22;;
14611;SDS011;7392;52.078;11.650;2023-09-08T11:33:34;4.45;;;3.83;;
14611;SDS011;7392;52.078;11.650;2023-09-08T11:36:11;4.30;;;3.90;;
14611;SDS011;7392;52.078;11.650;2023-09-08T11:38:41;4.15;;;3.75;;
14611;SDS011;7392;52.078;11.650;2023-09-08T11:41:10;4.20;;;3.80;;
14611;SDS011;7392;52.078;11.650;2023-09-08T11:43:38;6.22;;;4.00;;
14611;SDS011;7392;52.078;11.650;2023-09-08T11:46:07;5.45;;;4.13;;
14611;SDS011;7392;52.078;11.650;2023-09-08T11:48:37;4.50;;;4.05;;
14611;SDS011;7392;52.078;11.650;2023-09-08T11:51:06;4.20;;;3.80;;
14611;SDS011;7392;52.078;11.650;2023-09-08T11:53:34;3.78;;;3.47;;
14611;SDS011;7392;52.078;11.650;2023-09-08T11:56:04;3.90;;;3.42;;
14611;SDS011;7392;52.078;11.650;2023-09-08T11:58:32;4.38;;;3.97;;
14611;SDS011;7392;52.078;11.650;2023-09-08T12:01:01;5.22;;;3.72;;
14611;SDS011;7392;52.078;11.650;2023-09-08T12:03:31;3.92;;;3.55;;
14611;SDS011;7392;52.078;11.650;2023-09-08T12:05:59;4.57;;;4.18;;
14611;SDS011;7392;52.078;11.650;2023-09-08T12:08:28;6.00;;;3.53;;
14611;SDS011;7392;52.078;11.650;2023-09-08T12:10:56;4.88;;;3.55;;
14611;SDS011;7392;52.078;11.650;2023-09-08T12:13:24;4.40;;;4.00;;
14611;SDS011;7392;52.078;11.650;2023-09-08T12:15:53;3.72;;;3.35;;
14611;SDS011;7392;52.078;11.650;2023-09-08T12:18:36;3.95;;;3.50;;
14611;SDS011;7392;52.078;11.650;2023-09-08T12:21:06;3.53;;;3.22;;
14611;SDS011;7392;52.078;11.650;2023-09-08T12:23:46;3.58;;;3.28;;
14611;SDS011;7392;52.078;11.650;2023-09-08T12:26:16;4.47;;;3.17;;
14611;SDS011;7392;52.078;11.650;2023-09-08T12:28:45;3.95;;;3.65;;
14611;SDS011;7392;52.078;11.650;2023-09-08T12:31:15;4.90;;;3.72;;
14611;SDS011;7392;52.078;11.650;2023-09-08T12:33:45;4.03;;;3.45;;
14611;SDS011;7392;52.078;11.650;2023-09-08T12:36:14;5.53;;;3.58;;
14611;SDS011;7392;52.078;11.650;2023-09-08T12:38:46;4.03;;;3.63;;
14611;SDS011;7392;52.078;11.650;2023-09-08T12:41:15;3.85;;;3.38;;
14611;SDS011;7392;52.078;11.650;2023-09-08T12:43:44;3.60;;;3.30;;
14611;SDS011;7392;52.078;11.650;2023-09-08T12:46:12;3.60;;;3.30;;
14611;SDS011;7392;52.078;11.650;2023-09-08T12:48:40;3.88;;;3.47;;
14611;SDS011;7392;52.078;11.650;2023-09-08T12:51:09;3.65;;;3.35;;
14611;SDS011;7392;52.078;11.650;2023-09-08T12:53:36;3.88;;;3.58;;
14611;SDS011;7392;52.078;11.650;2023-09-08T12:56:04;3.75;;;3.42;;
14611;SDS011;7392;52.078;11.650;2023-09-08T12:58:32;4.15;;;3.75;;
14611;SDS011;7392;52.078;11.650;2023-09-08T13:01:00;4.05;;;3.60;;
14611;SDS011;7392;52.078;11.650;2023-09-08T13:03:31;4.00;;;3.70;;
14611;SDS011;7392;52.078;11.650;2023-09-08T13:05:59;3.72;;;3.42;;
14611;SDS011;7392;52.078;11.650;2023-09-08T13:08:28;4.18;;;3.78;;
14611;SDS011;7392;52.078;11.650;2023-09-08T13:10:56;4.03;;;3.03;;
14611;SDS011;7392;52.078;11.650;2023-09-08T13:13:24;3.85;;;3.40;;
14611;SDS011;7392;52.078;11.650;2023-09-08T13:15:52;3.78;;;3.47;;
14611;SDS011;7392;52.078;11.650;2023-09-08T13:18:19;3.75;;;3.42;;
14611;SDS011;7392;52.078;11.650;2023-09-08T13:20:47;3.85;;;3.55;;
14611;SDS011;7392;52.078;11.650;2023-09-08T13:23:15;4.35;;;3.67;;
14611;SDS011;7392;52.078;11.650;2023-09-08T13:25:44;3.50;;;3.20;;
14611;SDS011;7392;52.078;11.650;2023-09-08T13:28:12;3.60;;;3.30;;
14611;SDS011;7392;52.078;11.650;2023-09-08T13:30:41;3.55;;;3.25;;
14611;SDS011;7392;52.078;11.650;2023-09-08T13:33:08;3.25;;;2.95;;
14611;SDS011;7392;52.078;11.650;2023-09-08T13:35:36;3.60;;;3.22;;
14611;SDS011;7392;52.078;11.650;2023-09-08T13:38:05;3.83;;;3.50;;
14611;SDS011;7392;52.078;11.650;2023-09-08T13:40:33;3.95;;;3.53;;
14611;SDS011;7392;52.078;11.650;2023-09-08T13:43:02;4.10;;;3.80;;
14611;SDS011;7392;52.078;11.650;2023-09-08T13:45:30;4.10;;;3.70;;
14611;SDS011;7392;52.078;11.650;2023-09-08T13:47:58;4.25;;;3.58;;
14611;SDS011;7392;52.078;11.650;2023-09-08T13:50:26;3.92;;;3.63;;
14611;SDS011;7392;52.078;11.650;2023-09-08T13:52:56;5.10;;;3.67;;
14611;SDS011;7392;52.078;11.650;2023-09-08T13:55:24;3.92;;;3.53;;
14611;SDS011;7392;52.078;11.650;2023-09-08T13:57:55;3.72;;;3.33;;
14611;SDS011;7392;52.078;11.650;2023-09-08T14:00:28;3.72;;;3.30;;
14611;SDS011;7392;52.078;11.650;2023-09-08T14:02:57;4.82;;;3.50;;
14611;SDS011;7392;52.078;11.650;2023-09-08T14:05:31;3.80;;;3.42;;
14611;SDS011;7392;52.078;11.650;2023-09-08T14:08:03;3.63;;;3.28;;
14611;SDS011;7392;52.078;11.650;2023-09-08T14:10:40;3.90;;;3.15;;
14611;SDS011;7392;52.078;11.650;2023-09-08T14:13:23;3.72;;;3.42;;
14611;SDS011;7392;52.078;11.650;2023-09-08T14:15:52;3.97;;;3.60;;
14611;SDS011;7392;52.078;11.650;2023-09-08T14:18:20;3.70;;;3.40;;
14611;SDS011;7392;52.078;11.650;2023-09-08T14:20:48;3.45;;;3.15;;
14611;SDS011;7392;52.078;11.650;2023-09-08T14:23:16;3.20;;;2.90;;
14611;SDS011;7392;52.078;11.650;2023-09-08T14:25:43;2.90;;;2.70;;
14611;SDS011;7392;52.078;11.650;2023-09-08T14:28:11;2.92;;;2.72;;
14611;SDS011;7392;52.078;11.650;2023-09-08T14:30:39;3.00;;;2.70;;
14611;SDS011;7392;52.078;11.650;2023-09-08T14:33:08;2.75;;;2.50;;
14611;SDS011;7392;52.078;11.650;2023-09-08T14:35:40;2.88;;;2.67;;
14611;SDS011;7392;52.078;11.650;2023-09-08T14:38:09;3.22;;;2.92;;
14611;SDS011;7392;52.078;11.650;2023-09-08T14:40:38;3.40;;;3.10;;
14611;SDS011;7392;52.078;11.650;2023-09-08T14:43:05;4.07;;;3.17;;
14611;SDS011;7392;52.078;11.650;2023-09-08T14:45:33;3.00;;;2.80;;
14611;SDS011;7392;52.078;11.650;2023-09-08T14:48:01;3.42;;;2.92;;
14611;SDS011;7392;52.078;11.650;2023-09-08T14:50:30;4.15;;;3.30;;
14611;SDS011;7392;52.078;11.650;2023-09-08T14:52:58;2.95;;;2.75;;
14611;SDS011;7392;52.078;11.650;2023-09-08T14:55:26;3.33;;;2.95;;
14611;SDS011;7392;52.078;11.650;2023-09-08T14:57:54;3.78;;;3.25;;
14611;SDS011;7392;52.078;11.650;2023-09-08T15:00:22;3.90;;;3.20;;
14611;SDS011;7392;52.078;11.650;2023-09-08T15:02:50;3.88;;;2.97;;